createdAt,value
2022-08-07T00:01:44.755Z,46.40
2022-08-07T00:04:04.562Z,46.60
2022-08-07T00:06:33.500Z,51.00
2022-08-07T00:09:16.152Z,47.80
2022-08-07T00:11:53.850Z,47.80
2022-08-07T00:14:22.255Z,46.40
2022-08-07T00:16:52.530Z,46.30
2022-08-07T00:19:21.706Z,47.80
2022-08-07T00:21:56.944Z,47.90
2022-08-07T00:24:28.931Z,48.50
2022-08-07T00:27:07.229Z,48.70
2022-08-07T00:29:37.135Z,59.50
2022-08-07T00:32:05.940Z,46.70
2022-08-07T00:34:33.668Z,46.80
2022-08-07T00:37:02.615Z,46.80
2022-08-07T00:39:31.811Z,46.80
2022-08-07T00:42:02.497Z,46.90
2022-08-07T00:44:33.147Z,47.00
2022-08-07T00:47:00.554Z,47.10
2022-08-07T00:50:17.037Z,47.00
2022-08-07T00:52:17.578Z,47.10
2022-08-07T00:54:46.804Z,47.10
2022-08-07T00:57:22.542Z,47.20
2022-08-07T00:59:49.587Z,47.20
2022-08-07T01:02:28.387Z,47.30
2022-08-07T01:04:58.395Z,47.30
2022-08-07T01:07:27.477Z,47.30
2022-08-07T01:10:05.019Z,47.30
2022-08-07T01:12:53.562Z,47.30
2022-08-07T01:15:22.466Z,47.30
2022-08-07T01:18:03.155Z,47.40
2022-08-07T01:20:35.282Z,47.80
2022-08-07T01:23:13.075Z,47.40
2022-08-07T01:25:55.512Z,47.40
2022-08-07T01:28:23.861Z,47.50
2022-08-07T01:30:52.161Z,47.50
2022-08-07T01:33:19.215Z,47.60
2022-08-07T01:35:53.115Z,47.60
2022-08-07T01:38:24.812Z,47.70
2022-08-07T01:40:54.755Z,47.80
2022-08-07T01:43:22.993Z,47.90
2022-08-07T01:45:54.316Z,47.90
2022-08-07T01:48:29.570Z,48.10
2022-08-07T01:51:08.152Z,48.10
2022-08-07T01:54:08.869Z,48.20
2022-08-07T01:56:41.790Z,48.20
2022-08-07T01:59:17.555Z,48.20
2022-08-07T02:02:00.205Z,48.40
2022-08-07T02:04:36.966Z,48.40
2022-08-07T02:07:04.643Z,48.50
2022-08-07T02:09:52.959Z,48.50
2022-08-07T02:12:29.385Z,48.60
2022-08-07T02:15:00.516Z,48.70
2022-08-07T02:17:34.050Z,48.60
2022-08-07T02:20:09.541Z,48.80
2022-08-07T02:22:41.481Z,48.90
2022-08-07T02:25:17.441Z,48.80
2022-08-07T02:27:52.086Z,48.90
2022-08-07T02:30:19.935Z,49.00
2022-08-07T02:33:07.239Z,49.00
2022-08-07T02:36:30.361Z,49.10
2022-08-07T02:38:31.873Z,49.20
2022-08-07T02:41:03.839Z,53.60
2022-08-07T02:43:31.793Z,55.10
2022-08-07T02:46:02.006Z,49.00
2022-08-07T02:48:29.898Z,49.70
2022-08-07T02:50:59.403Z,49.80
2022-08-07T02:53:31.651Z,49.90
2022-08-07T02:56:17.627Z,50.10
2022-08-07T02:58:50.117Z,50.60
2022-08-07T03:01:35.063Z,50.10
2022-08-07T03:04:07.096Z,50.20
2022-08-07T03:06:40.028Z,50.20
2022-08-07T03:09:11.272Z,50.90
2022-08-07T03:11:52.582Z,50.20
2022-08-07T03:14:25.822Z,50.90
2022-08-07T03:16:52.837Z,51.10
2022-08-07T03:19:20.193Z,51.60
2022-08-07T03:24:26.716Z,54.00
2022-08-07T03:29:28.879Z,86.80
2022-08-07T03:31:56.869Z,62.50
2022-08-07T03:34:27.406Z,65.70
2022-08-07T03:36:57.414Z,68.10
2022-08-07T03:39:59.851Z,69.50
2022-08-07T03:42:17.310Z,70.60
2022-08-07T03:44:53.252Z,71.20
2022-08-07T03:47:22.756Z,72.10
2022-08-07T03:49:52.406Z,71.70
2022-08-07T03:52:27.024Z,72.60
2022-08-07T03:54:58.973Z,72.80
2022-08-07T03:58:33.099Z,73.30
2022-08-07T04:00:30.237Z,73.20
2022-08-07T04:02:58.581Z,72.40
2022-08-07T04:05:39.173Z,73.70
2022-08-07T04:08:07.230Z,63.90
2022-08-07T04:10:38.742Z,57.60
2022-08-07T04:13:08.082Z,58.50
2022-08-07T04:15:43.315Z,57.90
2022-08-07T04:18:57.183Z,57.30
2022-08-07T04:21:00.965Z,56.70
2022-08-07T04:23:43.857Z,56.00
2022-08-07T04:26:16.837Z,55.40
2022-08-07T04:28:50.024Z,54.80
2022-08-07T04:31:20.235Z,54.30
2022-08-07T04:34:04.679Z,54.20
2022-08-07T04:36:44.138Z,53.90
2022-08-07T04:39:12.431Z,53.70
2022-08-07T04:41:39.202Z,53.70
2022-08-07T04:44:18.696Z,53.70
2022-08-07T04:47:03.817Z,53.80
2022-08-07T04:49:47.602Z,53.90
2022-08-07T04:52:36.782Z,53.80
2022-08-07T04:55:15.515Z,53.80
2022-08-07T04:58:34.935Z,53.90
2022-08-07T05:01:01.492Z,54.00
2022-08-07T05:04:00.125Z,54.10
2022-08-07T05:06:28.351Z,54.10
2022-08-07T05:09:22.078Z,54.20
2022-08-07T05:12:13.265Z,54.30
2022-08-07T05:14:59.058Z,54.20
2022-08-07T05:17:51.775Z,54.30
2022-08-07T05:20:26.891Z,54.30
2022-08-07T05:22:58.275Z,54.40
2022-08-07T05:25:54.601Z,54.50
2022-08-07T05:28:20.305Z,54.40
2022-08-07T05:30:50.750Z,55.00
2022-08-07T05:33:22.183Z,54.50
2022-08-07T05:35:49.744Z,54.60
2022-08-07T05:39:00.226Z,54.60
2022-08-07T05:41:12.455Z,54.70
2022-08-07T05:44:08.060Z,54.70
2022-08-07T05:46:31.720Z,54.70
2022-08-07T05:49:00.708Z,54.70
2022-08-07T05:51:39.956Z,54.80
2022-08-07T05:54:12.939Z,54.80
2022-08-07T05:56:55.997Z,54.80
2022-08-07T05:59:25.196Z,54.90
2022-08-07T06:01:57.182Z,54.90
2022-08-07T06:04:30.319Z,54.90
2022-08-07T06:07:03.833Z,55.00
2022-08-07T06:09:44.955Z,55.00
2022-08-07T06:12:21.170Z,55.00
2022-08-07T06:15:05.286Z,55.00
2022-08-07T06:17:37.895Z,55.00
2022-08-07T06:20:12.755Z,55.10
2022-08-07T06:23:02.445Z,55.10
2022-08-07T06:25:41.447Z,55.00
2022-08-07T06:28:27.936Z,55.00
2022-08-07T06:30:55.777Z,55.00
2022-08-07T06:33:23.551Z,55.10
2022-08-07T06:36:12.873Z,55.10
2022-08-07T06:38:38.653Z,55.20
2022-08-07T06:41:29.381Z,55.10
2022-08-07T06:44:11.070Z,55.30
2022-08-07T06:46:38.768Z,55.20
2022-08-07T06:49:07.357Z,55.30
2022-08-07T06:51:49.598Z,55.40
2022-08-07T06:55:31.625Z,55.40
2022-08-07T06:57:08.064Z,55.50
2022-08-07T07:00:13.970Z,55.60
2022-08-07T07:02:48.758Z,55.60
2022-08-07T07:05:14.834Z,55.60
2022-08-07T07:08:07.393Z,55.70
2022-08-07T07:10:39.445Z,55.80
2022-08-07T07:13:56.526Z,55.80
2022-08-07T07:16:14.396Z,55.90
2022-08-07T07:18:51.946Z,55.90
2022-08-07T07:21:27.208Z,56.00
2022-08-07T07:24:12.627Z,56.10
2022-08-07T07:26:51.774Z,56.20
2022-08-07T07:29:57.269Z,56.00
2022-08-07T07:32:13.944Z,56.00
2022-08-07T07:34:45.302Z,55.90
2022-08-07T07:37:21.766Z,55.90
2022-08-07T07:40:10.305Z,55.90
2022-08-07T07:42:43.693Z,55.90
2022-08-07T07:45:22.700Z,55.90
2022-08-07T07:48:11.067Z,56.00
2022-08-07T07:50:40.215Z,56.00
2022-08-07T07:53:20.324Z,56.60
2022-08-07T07:56:00.806Z,56.00
2022-08-07T07:58:40.512Z,55.90
2022-08-07T08:02:01.736Z,55.80
2022-08-07T08:04:06.160Z,55.70
2022-08-07T08:06:37.811Z,55.60
2022-08-07T08:09:08.054Z,55.60
2022-08-07T08:11:59.969Z,55.50
2022-08-07T08:14:26.560Z,55.50
2022-08-07T08:16:56.008Z,55.40
2022-08-07T08:20:16.401Z,55.40
2022-08-07T08:22:56.334Z,55.20
2022-08-07T08:25:49.555Z,55.10
2022-08-07T08:28:23.898Z,54.90
2022-08-07T08:31:07.515Z,54.90
2022-08-07T08:33:48.953Z,54.70
2022-08-07T08:36:18.420Z,54.60
2022-08-07T08:38:56.013Z,54.40
2022-08-07T08:41:31.513Z,54.20
2022-08-07T08:44:29.648Z,54.20
2022-08-07T08:47:05.936Z,53.90
2022-08-07T08:49:46.259Z,53.70
2022-08-07T08:52:21.918Z,53.50
2022-08-07T08:54:54.938Z,53.40
2022-08-07T08:57:33.968Z,53.20
2022-08-07T09:00:07.163Z,53.20
2022-08-07T09:02:40.320Z,52.80
2022-08-07T09:05:37.266Z,52.80
2022-08-07T09:08:29.779Z,52.50
2022-08-07T09:11:24.678Z,52.20
2022-08-07T09:14:11.252Z,51.90
2022-08-07T09:16:52.453Z,51.50
2022-08-07T09:19:51.772Z,51.20
2022-08-07T09:24:30.561Z,50.90
2022-08-07T09:25:39.253Z,50.30
2022-08-07T09:29:24.514Z,50.50
2022-08-07T09:31:00.716Z,49.70
2022-08-07T09:33:56.637Z,49.00
2022-08-07T09:36:35.064Z,48.20
2022-08-07T09:39:53.642Z,47.80
2022-08-07T09:42:24.821Z,47.20
2022-08-07T09:47:49.576Z,47.00
2022-08-07T09:48:01.843Z,46.40
2022-08-07T09:50:41.775Z,46.20
2022-08-07T09:53:12.846Z,46.20
2022-08-07T09:56:03.763Z,45.90
2022-08-07T09:59:01.623Z,45.50
2022-08-07T10:01:56.411Z,45.50
2022-08-07T10:04:39.420Z,45.50
2022-08-07T10:07:53.613Z,45.30
2022-08-07T10:10:53.757Z,45.00
2022-08-07T10:13:54.825Z,44.90
2022-08-07T10:16:45.896Z,44.50
2022-08-07T10:19:55.029Z,44.50
2022-08-07T10:22:46.670Z,44.30
2022-08-07T10:25:32.861Z,44.10
2022-08-07T10:28:28.931Z,43.80
2022-08-07T10:31:11.057Z,43.80
2022-08-07T10:34:06.136Z,43.80
2022-08-07T10:36:56.676Z,43.60
2022-08-07T10:40:03.010Z,43.70
2022-08-07T10:42:38.484Z,43.20
2022-08-07T10:45:17.721Z,43.10
2022-08-07T10:48:05.176Z,42.80
2022-08-07T10:50:42.625Z,42.70
2022-08-07T10:53:25.313Z,42.50
2022-08-07T10:56:09.637Z,42.30
2022-08-07T10:59:00.035Z,42.00
2022-08-07T11:01:52.016Z,41.80
2022-08-07T11:04:40.797Z,41.50
2022-08-07T11:07:56.817Z,41.30
2022-08-07T11:10:18.355Z,41.20
2022-08-07T11:13:02.067Z,41.00
2022-08-07T11:15:34.118Z,40.90
2022-08-07T11:18:09.942Z,40.70
2022-08-07T11:20:47.081Z,40.60
2022-08-07T11:23:30.679Z,40.40
2022-08-07T11:26:13.148Z,40.30
2022-08-07T11:28:55.267Z,40.10
2022-08-07T11:31:30.372Z,40.20
2022-08-07T11:34:11.696Z,40.00
2022-08-07T11:36:53.215Z,40.20
2022-08-07T11:39:59.455Z,39.30
2022-08-07T11:42:30.202Z,39.00
2022-08-07T11:45:12.334Z,39.00
2022-08-07T11:48:17.934Z,38.90
2022-08-07T11:51:04.325Z,39.00
2022-08-07T11:54:00.827Z,39.20
2022-08-07T11:56:41.502Z,40.50
2022-08-07T12:00:11.878Z,38.80
2022-08-07T12:02:30.724Z,37.90
2022-08-07T12:05:09.057Z,38.00
2022-08-07T12:08:03.500Z,38.70
2022-08-07T12:10:41.621Z,37.20
2022-08-07T12:13:18.748Z,36.40
2022-08-07T12:16:09.343Z,35.40
2022-08-07T12:24:38.546Z,33.90
2022-08-07T12:27:03.297Z,34.60
2022-08-07T12:29:56.801Z,33.80
2022-08-07T12:32:31.111Z,33.10
2022-08-07T12:35:08.217Z,32.60
2022-08-07T12:38:11.403Z,32.40
2022-08-07T12:40:47.569Z,32.30
2022-08-07T12:44:01.402Z,31.80
2022-08-07T12:46:16.042Z,31.30
2022-08-07T12:49:10.060Z,31.00
2022-08-07T12:52:12.105Z,30.90
2022-08-07T12:54:54.704Z,30.90
2022-08-07T12:57:59.108Z,30.50
2022-08-07T13:00:31.257Z,30.40
2022-08-07T13:04:00.648Z,30.40
2022-08-07T13:06:31.030Z,30.40
2022-08-07T13:09:12.581Z,30.10
2022-08-07T13:12:10.200Z,30.00
2022-08-07T13:14:52.539Z,30.00
2022-08-07T13:17:34.737Z,29.90
2022-08-07T13:20:15.226Z,29.70
2022-08-07T13:22:52.607Z,29.70
2022-08-07T13:25:30.106Z,29.60
2022-08-07T13:28:12.801Z,29.50
2022-08-07T13:30:48.942Z,29.40
2022-08-07T13:34:32.092Z,29.30
2022-08-07T13:36:19.107Z,29.20
2022-08-07T13:38:54.361Z,29.20
2022-08-07T13:41:31.054Z,29.10
2022-08-07T13:44:02.376Z,29.00
2022-08-07T13:46:37.661Z,28.90
2022-08-07T13:50:34.309Z,31.50
2022-08-07T13:52:05.224Z,31.80
2022-08-07T13:54:49.602Z,32.80
2022-08-07T13:57:23.879Z,31.80
2022-08-07T13:59:55.563Z,31.70
2022-08-07T14:02:33.621Z,29.40
2022-08-07T14:05:19.923Z,35.50
2022-08-07T14:07:59.489Z,30.00
2022-08-07T14:10:34.567Z,33.90
2022-08-07T14:13:14.408Z,35.10
2022-08-07T14:15:50.819Z,31.40
2022-08-07T14:18:28.702Z,33.50
2022-08-07T14:21:11.722Z,30.20
2022-08-07T14:24:00.566Z,30.60
2022-08-07T14:26:35.946Z,31.60
2022-08-07T14:30:02.733Z,31.40
2022-08-07T14:31:57.816Z,30.40
2022-08-07T14:34:29.966Z,30.20
2022-08-07T14:37:01.989Z,30.40
2022-08-07T14:40:17.033Z,31.00
2022-08-07T14:42:26.240Z,31.70
2022-08-07T14:45:06.415Z,29.60
2022-08-07T14:47:47.108Z,30.10
2022-08-07T14:50:19.150Z,31.00
2022-08-07T14:52:50.502Z,29.30
2022-08-07T14:55:19.820Z,30.00
2022-08-07T15:00:42.873Z,29.60
2022-08-07T15:03:19.068Z,32.20
2022-08-07T15:05:54.414Z,34.60
2022-08-07T15:08:33.690Z,30.30
2022-08-07T15:11:06.133Z,30.20
2022-08-07T15:13:37.902Z,28.20
2022-08-07T15:16:10.955Z,28.10
2022-08-07T15:18:43.788Z,28.00
2022-08-07T15:21:43.920Z,28.00
2022-08-07T15:25:15.012Z,28.00
2022-08-07T15:27:03.641Z,28.10
2022-08-07T15:30:06.691Z,28.10
2022-08-07T15:32:39.035Z,28.00
2022-08-07T15:35:12.356Z,28.00
2022-08-07T15:38:17.300Z,28.10
2022-08-07T15:43:52.797Z,28.20
2022-08-07T15:46:31.485Z,28.20
2022-08-07T15:49:12.898Z,28.60
2022-08-07T15:54:30.933Z,28.60
2022-08-07T15:57:02.322Z,31.60
2022-08-07T16:02:22.668Z,28.50
2022-08-07T16:04:55.946Z,28.30
2022-08-07T16:08:30.227Z,28.30
2022-08-07T16:13:05.875Z,34.80
2022-08-07T16:15:58.038Z,32.70
2022-08-07T16:18:43.478Z,32.30
2022-08-07T16:22:03.545Z,32.10
2022-08-07T16:24:34.664Z,32.10
2022-08-07T16:27:18.160Z,31.90
2022-08-07T16:30:09.137Z,31.90
2022-08-07T16:32:54.089Z,31.80
2022-08-07T16:35:51.633Z,31.90
2022-08-07T16:38:57.450Z,32.40
2022-08-07T16:42:01.223Z,31.90
2022-08-07T16:45:13.982Z,31.90
2022-08-07T16:48:15.826Z,31.70
2022-08-07T16:51:54.066Z,31.90
2022-08-07T16:54:32.524Z,31.80
2022-08-07T16:57:15.219Z,31.70
2022-08-07T16:59:51.081Z,31.70
2022-08-07T17:02:53.662Z,31.80
2022-08-07T17:06:01.739Z,31.30
2022-08-07T17:09:08.701Z,31.10
2022-08-07T17:12:01.468Z,30.90
2022-08-07T17:14:36.371Z,30.80
2022-08-07T17:17:13.817Z,30.70
2022-08-07T17:20:02.397Z,30.60
2022-08-07T17:22:37.995Z,30.60
2022-08-07T17:25:15.228Z,30.60
2022-08-07T17:27:57.021Z,30.50
2022-08-07T17:30:29.453Z,30.50
2022-08-07T17:34:09.757Z,30.50
2022-08-07T17:36:00.750Z,30.50
2022-08-07T17:38:35.123Z,30.70
2022-08-07T17:42:00.809Z,30.60
2022-08-07T17:44:03.285Z,30.60
2022-08-07T17:46:43.058Z,30.50
2022-08-07T17:49:22.942Z,30.50
2022-08-07T17:52:01.227Z,30.50
2022-08-07T17:54:40.093Z,30.50
2022-08-07T18:03:17.968Z,35.80
2022-08-07T18:06:01.556Z,39.50
2022-08-07T18:08:24.143Z,32.20
2022-08-07T18:09:01.769Z,32.00
2022-08-07T18:10:29.125Z,32.30
2022-08-07T18:12:07.730Z,31.70
2022-08-07T18:12:12.038Z,31.60
2022-08-07T18:12:47.909Z,32.00
2022-08-07T18:13:40.681Z,31.90
2022-08-07T18:14:17.786Z,32.00
2022-08-07T18:14:51.288Z,31.90
2022-08-07T18:15:22.545Z,33.70
2022-08-07T18:15:55.830Z,35.40
2022-08-07T18:16:34.046Z,36.10
2022-08-07T18:17:00.450Z,34.70
2022-08-07T18:18:36.934Z,34.00
2022-08-07T18:21:07.322Z,33.90
2022-08-07T18:21:25.461Z,33.60
2022-08-07T18:22:27.334Z,33.40
2022-08-07T18:23:46.670Z,33.90
2022-08-07T18:25:01.471Z,34.60
2022-08-07T18:26:15.191Z,34.00
2022-08-07T18:27:55.368Z,34.10
2022-08-07T18:30:06.318Z,34.40
2022-08-07T18:30:37.615Z,34.60
2022-08-07T18:31:50.246Z,34.60
2022-08-07T18:33:28.415Z,34.90
2022-08-07T18:34:53.244Z,35.00
2022-08-07T18:36:32.931Z,34.90
2022-08-07T18:38:57.675Z,34.60
2022-08-07T18:40:53.433Z,35.80
2022-08-07T18:45:44.276Z,35.90
2022-08-07T18:48:01.103Z,34.70
2022-08-07T18:50:53.118Z,34.40
2022-08-07T18:53:39.675Z,34.20
2022-08-07T18:56:16.680Z,34.00
2022-08-07T18:59:09.162Z,33.90
2022-08-07T19:02:32.059Z,33.80
2022-08-07T19:05:10.070Z,33.80
2022-08-07T19:07:58.164Z,33.70
2022-08-07T19:10:49.591Z,33.80
2022-08-07T19:13:25.628Z,33.80
2022-08-07T19:17:01.226Z,33.80
2022-08-07T19:19:03.160Z,33.80
2022-08-07T19:21:56.105Z,33.90
2022-08-07T19:24:43.166Z,33.90
2022-08-07T19:28:56.497Z,34.00
2022-08-07T19:30:57.444Z,34.70
2022-08-07T19:33:10.393Z,34.10
2022-08-07T19:35:53.390Z,34.20
2022-08-07T19:38:29.099Z,34.40
2022-08-07T19:41:02.665Z,34.40
2022-08-07T19:43:45.047Z,35.10
2022-08-07T19:46:26.772Z,34.70
2022-08-07T19:49:05.273Z,34.90
2022-08-07T19:51:52.187Z,35.30
2022-08-07T19:54:44.636Z,35.80
2022-08-07T19:58:03.120Z,36.00
2022-08-07T20:00:28.957Z,36.10
2022-08-07T20:03:03.399Z,36.10
2022-08-07T20:06:01.159Z,36.10
2022-08-07T20:08:34.382Z,36.00
2022-08-07T20:11:10.805Z,36.00
2022-08-07T20:13:46.594Z,35.90
2022-08-07T20:16:35.471Z,35.80
2022-08-07T20:19:11.523Z,35.90
2022-08-07T20:21:47.152Z,36.00
2022-08-07T20:24:28.761Z,36.00
2022-08-07T20:27:07.469Z,36.00
2022-08-07T20:29:57.463Z,36.20
2022-08-07T20:32:39.772Z,36.20
2022-08-07T20:35:17.799Z,36.30
2022-08-07T20:37:59.486Z,36.40
2022-08-07T20:40:40.621Z,36.40
2022-08-07T20:43:19.850Z,36.50
2022-08-07T20:46:26.440Z,36.40
2022-08-07T20:49:00.783Z,36.50
2022-08-07T20:51:50.657Z,36.40
2022-08-07T20:54:29.732Z,36.50
2022-08-07T20:57:08.165Z,36.60
2022-08-07T21:00:04.782Z,36.80
2022-08-07T21:02:57.566Z,36.80
2022-08-07T21:05:54.411Z,36.80
2022-08-07T21:08:37.612Z,37.00
2022-08-07T21:11:15.159Z,37.10
2022-08-07T21:14:16.595Z,37.10
2022-08-07T21:16:56.864Z,37.20
2022-08-07T21:19:51.218Z,37.50
2022-08-07T21:22:34.418Z,37.70
2022-08-07T21:25:13.533Z,37.80
2022-08-07T21:28:05.680Z,37.90
2022-08-07T21:30:50.243Z,38.10
2022-08-07T21:33:38.500Z,38.40
2022-08-07T21:36:32.239Z,38.40
2022-08-07T21:39:46.056Z,38.40
2022-08-07T21:42:37.775Z,38.30
2022-08-07T21:46:03.324Z,38.30
2022-08-07T21:48:28.917Z,38.20
2022-08-07T21:51:20.042Z,38.20
2022-08-07T21:54:08.499Z,38.20
2022-08-07T21:56:49.090Z,38.10
2022-08-07T22:00:02.776Z,38.00
2022-08-07T22:02:34.146Z,38.20
2022-08-07T22:05:12.312Z,38.20
2022-08-07T22:07:59.460Z,38.30
2022-08-07T22:10:35.636Z,38.50
2022-08-07T22:13:13.661Z,38.60
2022-08-07T22:16:44.691Z,38.60
2022-08-07T22:18:49.656Z,38.50
2022-08-07T22:22:01.946Z,38.20
2022-08-07T22:24:32.625Z,38.30
2022-08-07T22:27:12.862Z,38.40
2022-08-07T22:29:54.392Z,38.60
2022-08-07T22:32:53.448Z,38.90
2022-08-07T22:35:39.357Z,39.50
2022-08-07T22:38:26.086Z,39.90
2022-08-07T22:41:07.681Z,40.60
2022-08-07T22:43:46.303Z,41.50
2022-08-07T22:47:08.521Z,41.30
2022-08-07T22:50:01.947Z,42.00
2022-08-07T22:53:00.493Z,42.20
2022-08-07T22:55:59.475Z,42.70
2022-08-07T22:59:02.318Z,42.90
2022-08-07T23:01:58.921Z,43.30
2022-08-07T23:04:57.857Z,43.70
2022-08-07T23:07:53.782Z,44.00
2022-08-07T23:10:42.239Z,44.20
2022-08-07T23:13:48.345Z,44.50
2022-08-07T23:16:54.369Z,44.80
2022-08-07T23:19:57.920Z,45.20
2022-08-07T23:22:46.044Z,45.60
2022-08-07T23:25:32.326Z,45.90
2022-08-07T23:28:35.143Z,46.10
2022-08-07T23:32:49.546Z,46.50
2022-08-07T23:34:47.313Z,46.70
2022-08-07T23:38:00.311Z,46.90
2022-08-07T23:40:35.182Z,47.10
2022-08-07T23:43:25.158Z,47.20
2022-08-07T23:46:12.362Z,47.50
2022-08-07T23:49:19.050Z,47.60
2022-08-07T23:53:06.669Z,47.70
2022-08-07T23:54:59.307Z,47.70
2022-08-07T23:57:36.230Z,48.00
